Santa Branca, Brazil
Current Conditions -  °F | °C
As of 3:00 PM on Friday 28 Nov 2014 (Local Time) from SBSJ Reporting Station
Broken Clouds Broken Clouds  
Wind Chill: 84°   Ceiling: 4000
Heat Index: 84°   Visibility: 6mi
Dew Point: 59°   Wind: 7mph
Humidity: 42%   Direction: 170°S
Pressure: 30.03"   Gusts: NA
Location:  23.4°S, 45.89°W
Report Text: SBSJ 281700Z 17006KT 9999 BKN040 29/15 Q1017
Loading
Personal Weather Stations






























Interactive Weather Map New forecast layout! Learn more

10-Day Weather Forecast

Advertisements
Track Severe Weather on mobile